Time;durP1;ratioP1;P1;durP2;ratioP2;P2;SDS_P1;SDS_P2;PMS_P1;PMS_P2;Temp;Humidity;BMP_temperature;BMP_pressure;BME280_temperature;BME280_humidity;BME280_pressure;Samples;Min_cycle;Max_cycle;Signal;HPM_P1;HPM_P2
2021/12/20 00:03:57;;;;;;;8.75;2.35;;;;;;;14.43;59.37;102311.59;19726891;30;20051;-76
2021/12/20 00:13:59;;;;;;;8.13;2.17;;;;;;;14.69;59.20;102352.25;19740356;30;20058;-76
2021/12/20 00:24:01;;;;;;;5.82;1.90;;;;;;;14.78;59.41;102366.06;19740986;30;20139;-76
2021/12/20 00:34:02;;;;;;;7.43;2.38;;;;;;;14.83;59.10;102356.94;19740077;30;20060;-76
2021/12/20 00:44:05;;;;;;;7.88;2.38;;;;;;;14.75;58.96;102355.50;19752447;29;20367;-76
2021/12/20 00:54:26;;;;;;;6.53;1.80;;;;;;;14.79;58.83;102375.84;19722728;30;20083;-76
2021/12/20 01:04:28;;;;;;;6.50;2.53;;;;;;;14.43;58.96;102300.88;19737068;30;20110;-76
2021/12/20 01:14:33;;;;;;;6.13;2.50;;;;;;;14.86;58.84;102368.34;19751037;30;20147;-76
2021/12/20 01:24:35;;;;;;;5.63;1.85;;;;;;;14.87;58.69;102378.13;19750587;30;20064;-76
2021/12/20 01:34:37;;;;;;;7.60;1.90;;;;;;;14.49;58.49;102312.13;19735147;30;20055;-76
2021/12/20 01:44:38;;;;;;;4.65;1.80;;;;;;;14.82;58.30;102360.56;19719843;30;20056;-76
2021/12/20 01:54:41;;;;;;;5.00;1.90;;;;;;;14.79;58.57;102366.94;19735365;30;20062;-76
2021/12/20 02:04:49;;;;;;;6.60;1.73;;;;;;;14.87;57.89;102370.09;19719249;30;20418;-76
2021/12/20 02:14:51;;;;;;;5.13;1.58;;;;;;;14.84;57.94;102375.63;19733419;30;20082;-76
2021/12/20 02:24:53;;;;;;;5.30;1.70;;;;;;;14.53;57.78;102328.91;19718685;30;20132;-76
2021/12/20 02:45:16;;;;;;;6.97;2.53;;;;;;;14.86;57.73;102384.44;19734046;30;20060;-76
2021/12/20 02:55:18;;;;;;;6.40;2.08;;;;;;;14.45;57.41;102317.72;19733167;30;20056;-76
2021/12/20 03:05:20;;;;;;;7.35;3.05;;;;;;;14.84;57.32;102375.63;19743086;30;20095;-76
2021/12/20 03:15:25;;;;;;;4.05;1.55;;;;;;;14.79;57.63;102361.59;19729461;30;20216;-76
2021/12/20 03:25:27;;;;;;;6.07;1.70;;;;;;;14.32;57.04;102286.22;19714927;30;20056;-76
2021/12/20 03:35:28;;;;;;;3.90;1.40;;;;;;;14.84;57.06;102372.09;19728523;30;20056;-76
2021/12/20 03:45:30;;;;;;;3.80;1.52;;;;;;;14.65;57.41;102347.06;19742572;30;20477;-76
2021/12/20 03:55:32;;;;;;;5.32;1.50;;;;;;;14.68;57.41;102348.69;19726967;30;20060;-76
2021/12/20 04:05:34;;;;;;;4.93;1.70;;;;;;;14.83;57.11;102381.91;19741055;30;20479;-76
2021/12/20 04:15:36;;;;;;;6.07;2.15;;;;;;;14.79;56.59;102366.94;19680391;30;20117;-77
2021/12/20 04:25:38;;;;;;;3.92;1.40;;;;;;;14.57;56.88;102341.22;19681237;30;20552;-77
2021/12/20 04:35:40;;;;;;;4.63;1.27;;;;;;;14.80;56.50;102376.72;19666563;30;20060;-77
2021/12/20 04:45:42;;;;;;;4.47;1.52;;;;;;;14.55;56.69;102337.75;19664738;30;20064;-76
2021/12/20 04:55:44;;;;;;;5.32;1.52;;;;;;;14.55;56.53;102310.94;19693615;30;20052;-76
2021/12/20 05:05:45;;;;;;;3.50;1.45;;;;;;;15.22;56.17;102401.34;19678336;30;20518;-77
2021/12/20 05:15:47;;;;;;;3.92;1.50;;;;;;;15.58;55.75;102412.88;19662648;30;20137;-76
2021/12/20 05:25:49;;;;;;;2.97;0.90;;;;;;;15.85;55.35;102405.13;19676526;30;20068;-75
2021/12/20 05:35:51;;;;;;;3.30;1.23;;;;;;;16.03;54.77;102397.88;19676464;30;20052;-77
2021/12/20 05:46:04;;;;;;;3.83;1.10;;;;;;;16.16;54.59;102397.16;19661229;30;20072;-75
2021/12/20 05:56:06;;;;;;;2.80;1.27;;;;;;;16.24;54.29;102421.75;19662080;30;20068;-75
2021/12/20 06:06:08;;;;;;;4.28;0.98;;;;;;;16.14;54.16;102381.16;19661609;30;20072;-74
2021/12/20 06:16:10;;;;;;;4.07;1.15;;;;;;;16.56;54.07;102432.47;19658775;30;20508;-74
2021/12/20 06:26:12;;;;;;;4.43;1.38;;;;;;;16.53;53.71;102438.03;19689320;30;20048;-75
2021/12/20 06:36:14;;;;;;;4.80;1.08;;;;;;;16.56;53.67;102448.59;19665390;30;20131;-74
2021/12/20 06:46:17;;;;;;;3.72;1.10;;;;;;;16.20;53.78;102370.03;19674331;30;20507;-75
2021/12/20 06:56:19;;;;;;;2.95;0.85;;;;;;;16.77;53.38;102454.53;19687203;30;20064;-78
2021/12/20 07:06:21;;;;;;;3.83;1.23;;;;;;;16.68;53.54;102455.94;19671640;30;20063;-76
2021/12/20 07:16:23;;;;;;;4.47;1.10;;;;;;;16.76;53.25;102470.75;19741740;30;20067;-75
2021/12/20 07:26:26;;;;;;;3.75;1.40;;;;;;;16.23;53.22;102382.41;19744837;30;20056;-74
2021/12/20 07:36:27;;;;;;;2.78;1.08;;;;;;;16.37;53.04;102406.69;19728463;30;20059;-76
2021/12/20 07:46:29;;;;;;;2.78;0.98;;;;;;;16.81;52.86;102479.44;19727632;30;20060;-75
2021/12/20 07:56:31;;;;;;;2.75;1.13;;;;;;;16.87;53.71;102495.22;19741698;30;20064;-76
2021/12/20 08:06:33;;;;;;;2.90;1.10;;;;;;;16.48;53.69;102429.38;19742598;30;20066;-73
2021/12/20 08:16:35;;;;;;;2.90;0.88;;;;;;;16.70;51.50;102498.91;19755040;30;20090;-75
2021/12/20 08:26:37;;;;;;;2.25;1.00;;;;;;;16.68;51.72;102515.09;19741231;30;20490;-73
2021/12/20 08:36:39;;;;;;;3.30;1.13;;;;;;;16.62;52.16;102522.69;19740400;30;20055;-75
2021/12/20 08:46:41;;;;;;;13.32;1.73;;;;;;;16.71;52.49;102537.41;19739419;30;20060;-77
2021/12/20 08:56:43;;;;;;;3.85;1.65;;;;;;;16.73;52.51;102533.69;19738393;30;20193;-75
2021/12/20 09:06:45;;;;;;;3.75;1.70;;;;;;;16.40;51.79;102480.03;19737045;30;20078;-75
2021/12/20 09:16:47;;;;;;;4.30;2.03;;;;;;;16.71;51.66;102569.66;19721492;30;20059;-74
2021/12/20 09:26:49;;;;;;;2.50;1.58;;;;;;;16.73;51.87;102546.25;19720742;30;20059;-75
2021/12/20 09:36:53;;;;;;;3.20;1.40;;;;;;;16.70;51.30;102550.00;19720645;30;20064;-76
2021/12/20 09:46:56;;;;;;;3.47;1.63;;;;;;;16.76;51.41;102559.50;19749382;30;20061;-75
2021/12/20 09:56:59;;;;;;;1.88;1.38;;;;;;;16.82;51.37;102578.88;19734056;30;20151;-76
2021/12/20 10:07:02;;;;;;;2.58;2.03;;;;;;;16.85;51.43;102572.47;19719444;30;20094;-75
2021/12/20 10:17:05;;;;;;;3.63;1.70;;;;;;;16.80;51.45;102553.03;19748827;30;20528;-75
2021/12/20 10:27:07;;;;;;;3.38;1.48;;;;;;;15.86;51.14;102408.66;19749363;30;20493;-75
2021/12/20 10:37:08;;;;;;;4.35;1.50;;;;;;;16.86;51.19;102568.81;19748850;30;20056;-76
2021/12/20 10:47:25;;;;;;;2.78;1.30;;;;;;;16.92;51.68;102581.03;19746946;30;20062;-76
2021/12/20 10:57:30;;;;;;;2.60;1.30;;;;;;;17.03;51.33;102585.81;19746092;30;20426;-77
2021/12/20 11:17:53;;;;;;;2.80;1.45;;;;;;;17.06;51.73;102574.88;19744987;30;20056;-75
2021/12/20 11:27:55;;;;;;;1.92;1.40;;;;;;;16.66;51.89;102502.72;19744438;30;20076;-74
2021/12/20 11:37:56;;;;;;;2.88;1.60;;;;;;;16.96;52.65;102547.59;19743185;30;20105;-73
2021/12/20 11:48:02;;;;;;;2.53;1.35;;;;;;;17.08;53.05;102567.56;19742320;30;20499;-72
2021/12/20 11:58:15;;;;;;;3.13;1.67;;;;;;;16.71;53.22;102510.50;19742032;30;20555;-74
2021/12/20 12:08:36;;;;;;;3.95;1.48;;;;;;;16.91;53.37;102555.97;19741098;30;20055;-75
2021/12/20 12:18:47;;;;;;;2.45;1.13;;;;;;;16.86;53.40;102543.72;19725748;30;20068;-75
2021/12/20 12:28:54;;;;;;;2.42;1.13;;;;;;;17.15;53.14;102563.56;19739822;30;20090;-75
2021/12/20 12:39:01;;;;;;;2.70;1.23;;;;;;;15.80;52.83;102338.22;19753300;29;20066;-75
2021/12/20 12:49:22;;;;;;;2.35;1.08;;;;;;;17.30;52.46;102567.16;19738459;30;20059;-75
2021/12/20 12:59:25;;;;;;;3.03;1.00;;;;;;;17.29;51.80;102559.19;19754018;30;20059;-75
2021/12/20 13:09:32;;;;;;;1.77;0.88;;;;;;;17.20;51.84;102566.84;19737277;30;20063;-76
2021/12/20 13:19:35;;;;;;;2.70;1.30;;;;;;;17.14;52.14;102577.97;19737425;30;20136;-77
2021/12/20 13:29:38;;;;;;;2.47;0.98;;;;;;;17.03;52.82;102565.19;19735786;30;20396;-75
2021/12/20 13:39:52;;;;;;;3.20;0.75;;;;;;;16.58;53.25;102505.84;19735342;30;20860;-75
2021/12/20 13:49:53;;;;;;;2.97;1.05;;;;;;;16.87;53.61;102565.16;19735601;30;20051;-77
2021/12/20 13:59:57;;;;;;;3.15;1.25;;;;;;;16.80;54.22;102563.78;19735781;30;20518;-78
2021/12/20 14:10:14;;;;;;;2.65;1.25;;;;;;;16.47;54.33;102525.28;19735070;30;20142;-77
2021/12/20 14:20:16;;;;;;;1.95;1.08;;;;;;;16.46;54.31;102549.56;19733665;30;20067;-78
2021/12/20 14:30:22;;;;;;;2.07;0.87;;;;;;;16.52;53.89;102579.66;19734500;30;20059;-79
2021/12/20 14:40:44;;;;;;;2.08;0.93;;;;;;;16.43;53.41;102555.97;19747633;30;20064;-79
2021/12/20 14:50:48;;;;;;;1.10;0.70;;;;;;;16.12;53.17;102497.69;19732668;30;20059;-79
2021/12/20 15:00:54;;;;;;;1.58;0.77;;;;;;;16.42;52.56;102543.47;19728125;30;20063;-78
2021/12/20 15:10:56;;;;;;;2.70;0.85;;;;;;;16.54;52.37;102547.31;19760501;30;20078;-77
2021/12/20 15:20:59;;;;;;;2.65;1.02;;;;;;;16.70;52.03;102562.56;19744856;30;20063;-77
2021/12/20 15:31:01;;;;;;;0.85;0.77;;;;;;;16.72;51.64;102549.88;19745925;30;20491;-76
2021/12/20 15:41:03;;;;;;;1.63;0.70;;;;;;;16.62;51.61;102536.97;19728602;30;20056;-78
2021/12/20 15:51:05;;;;;;;0.75;0.70;;;;;;;16.35;51.15;102482.97;19742581;30;20060;-77
2021/12/20 16:01:07;;;;;;;2.47;1.05;;;;;;;16.66;51.28;102527.78;19742882;30;20060;-76
2021/12/20 16:11:11;;;;;;;2.80;0.60;;;;;;;16.71;50.79;102543.66;19755200;30;20083;-76
2021/12/20 16:21:12;;;;;;;2.25;1.00;;;;;;;16.29;50.62;102454.59;19740360;30;20056;-76
2021/12/20 16:31:14;;;;;;;0.93;0.55;;;;;;;16.61;50.26;102511.03;19740691;30;20069;-76
2021/12/20 16:41:16;;;;;;;2.67;0.70;;;;;;;16.82;50.14;102529.59;19738959;30;20457;-76
2021/12/20 16:51:18;;;;;;;2.13;0.60;;;;;;;16.21;49.80;102424.63;19739270;30;20055;-76
2021/12/20 17:01:42;;;;;;;2.55;1.17;;;;;;;16.70;49.52;102511.47;19737682;30;20089;-76
2021/12/20 17:11:43;;;;;;;2.17;0.63;;;;;;;16.64;49.53;102510.88;19721837;30;20074;-76
2021/12/20 17:21:45;;;;;;;3.45;0.80;;;;;;;16.81;49.46;102527.88;19720910;30;20063;-76
2021/12/20 17:31:50;;;;;;;3.42;0.57;;;;;;;16.73;49.33;102530.09;19735619;30;20060;-76
2021/12/20 17:41:52;;;;;;;2.93;0.70;;;;;;;16.80;49.30;102547.66;19720369;30;20498;-76
2021/12/20 17:51:54;;;;;;;1.40;0.80;;;;;;;15.76;48.72;102376.94;19734655;30;20105;-76
2021/12/20 18:01:55;;;;;;;1.85;1.00;;;;;;;16.71;48.80;102538.28;19735760;30;20059;-78
2021/12/20 18:11:57;;;;;;;1.55;0.70;;;;;;;16.71;48.86;102558.91;19719296;30;20055;-75
2021/12/20 18:21:59;;;;;;;1.27;0.80;;;;;;;16.65;48.86;102557.47;19718800;30;20052;-78
2021/12/20 18:32:02;;;;;;;1.23;0.90;;;;;;;16.46;49.20;102536.13;19752732;30;20066;-76
2021/12/20 18:42:04;;;;;;;2.88;0.85;;;;;;;16.41;48.99;102546.28;19748536;30;20051;-74
2021/12/20 18:52:07;;;;;;;2.17;1.00;;;;;;;16.29;49.58;102540.59;19746621;30;20064;-76
2021/12/20 19:02:08;;;;;;;1.55;1.00;;;;;;;16.03;49.81;102529.50;19745929;30;20407;-74
2021/12/20 19:12:16;;;;;;;1.52;0.80;;;;;;;15.91;49.98;102536.41;19746234;30;20063;-76
2021/12/20 19:22:18;;;;;;;1.50;1.13;;;;;;;15.91;49.94;102539.09;19744702;30;20090;-77
2021/12/20 19:32:21;;;;;;;1.45;1.05;;;;;;;15.64;49.66;102518.09;19758659;30;20063;-77
2021/12/20 19:42:23;;;;;;;2.08;0.90;;;;;;;15.63;49.68;102535.16;19743886;30;20047;-77
2021/12/20 19:52:26;;;;;;;1.40;0.80;;;;;;;15.57;50.07;102542.69;19743529;30;20060;-77
2021/12/20 20:02:28;;;;;;;1.30;1.08;;;;;;;14.97;50.21;102467.03;19743430;30;20066;-77
2021/12/20 20:12:30;;;;;;;2.08;1.13;;;;;;;15.23;50.39;102527.38;19741523;30;20056;-77
2021/12/20 20:22:32;;;;;;;1.90;0.82;;;;;;;15.11;50.13;102527.13;19741792;30;20514;-77
2021/12/20 20:32:34;;;;;;;1.48;1.17;;;;;;;14.54;50.06;102448.56;19739427;30;20056;-77
2021/12/20 20:42:36;;;;;;;2.80;1.20;;;;;;;15.05;50.29;102549.78;19739962;30;20426;-76
2021/12/20 20:52:39;;;;;;;3.17;1.20;;;;;;;14.73;49.78;102498.63;19738486;30;20074;-76
2021/12/20 21:02:41;;;;;;;2.95;1.20;;;;;;;14.98;50.14;102548.34;19738611;30;20086;-76
2021/12/20 21:12:43;;;;;;;1.85;1.35;;;;;;;14.93;49.44;102546.75;19721921;30;20070;-76
2021/12/20 21:22:45;;;;;;;2.20;1.20;;;;;;;14.40;49.23;102437.66;19707152;30;20066;-77
2021/12/20 21:32:47;;;;;;;1.58;1.00;;;;;;;14.56;49.12;102462.75;19736880;30;20059;-77
2021/12/20 21:42:52;;;;;;;1.50;0.95;;;;;;;14.85;49.05;102515.94;19735111;30;20117;-77
2021/12/20 21:52:53;;;;;;;1.63;1.02;;;;;;;14.97;48.87;102527.81;19720118;30;20060;-76
2021/12/20 22:02:55;;;;;;;2.03;1.38;;;;;;;14.83;48.83;102510.63;19734315;30;20068;-77
2021/12/20 22:12:57;;;;;;;2.13;1.27;;;;;;;14.49;48.78;102454.16;19763857;30;20051;-77
2021/12/20 22:22:59;;;;;;;1.73;1.20;;;;;;;14.76;48.65;102507.38;19748822;30;20060;-76
2021/12/20 22:33:01;;;;;;;1.95;1.10;;;;;;;14.77;48.95;102503.75;19762820;30;20146;-76
2021/12/20 22:43:03;;;;;;;1.52;1.10;;;;;;;14.09;48.90;102407.00;19762245;30;20051;-76
2021/12/20 22:53:05;;;;;;;1.30;1.00;;;;;;;14.62;48.73;102518.78;19732124;30;20064;-77
2021/12/20 23:03:07;;;;;;;1.23;1.00;;;;;;;14.54;48.81;102523.59;19747011;30;20052;-77
2021/12/20 23:13:17;;;;;;;3.67;1.20;;;;;;;14.03;48.63;102451.03;19730686;30;20098;-77
2021/12/20 23:23:19;;;;;;;1.80;0.93;;;;;;;13.89;48.98;102443.66;19745190;30;20491;-77
2021/12/20 23:33:21;;;;;;;2.72;1.15;;;;;;;14.17;49.08;102494.09;19729351;30;20064;-77
2021/12/20 23:43:26;;;;;;;2.38;1.00;;;;;;;13.89;48.76;102441.84;19728316;30;20063;-77
2021/12/20 23:53:29;;;;;;;1.77;1.00;;;;;;;14.15;48.86;102487.94;19742710;30;20506;-77
